KCMI/CMI METAR and TAF weather

Enter ICAO airport designator
Station Type Date Time Source
KCMI METAR 2021/10/22 18:23 UTC NOAA

KCMI 221823Z 31009KT 10SM BKN011 OVC030 12/10 A3004 RMK AO2 T01220100


Station Type Date Time Source
KCMI Decoded METAR 2021/10/22 18:23 UTC NOAA

UNIV OF ILLINOIS-WILLARD, IL, United States (KCMI) 40-02N 088-16W 228M
Oct 22, 2021 - 02:23 PM EDT / 2021.10.22 1823 UTC
Wind: from the NW (310 degrees) at 10 MPH (9 KT):0
Visibility: 10 mile(s):0
Sky conditions: overcast
Temperature: 54.0 F (12.2 C)
Dew Point: 50.0 F (10.0 C)
Relative Humidity: 86%
Pressure (altimeter): 30.04 in. Hg (1017 hPa)
ob: KCMI 221823Z 31009KT 10SM BKN011 OVC030 12/10 A3004 RMK AO2 T01220100
cycle: 18

Station Type Date Time Source
KCMI TAF 2021/10/22 18:36 UTC NOAA

TAF KCMI 221735Z 2218/2318 29014KT 6SM BR OVC005
FM222000 29012KT P6SM BKN015
FM222200 29008KT P6SM BKN025
FM230000 29007KT P6SM BKN040

Example: see airport list